sensor_id;sensor_type;location;lat;lon;timestamp;temperature;humidity
26589;DHT22;14235;48.532;8.722;2022-12-18T05:33:16;-8.60;99.90
26589;DHT22;14235;48.532;8.722;2022-12-18T05:35:42;-8.60;99.90
26589;DHT22;14235;48.532;8.722;2022-12-18T05:38:08;-8.90;99.90
26589;DHT22;14235;48.532;8.722;2022-12-18T05:40:33;-8.90;99.90
26589;DHT22;14235;48.532;8.722;2022-12-18T05:42:59;-8.90;99.90
26589;DHT22;14235;48.532;8.722;2022-12-18T05:45:24;-9.00;99.90
26589;DHT22;14235;48.532;8.722;2022-12-18T05:47:50;-9.30;99.90
26589;DHT22;14235;48.532;8.722;2022-12-18T05:50:16;-9.10;99.90
26589;DHT22;14235;48.532;8.722;2022-12-18T05:52:41;-9.20;99.90
26589;DHT22;14235;48.532;8.722;2022-12-18T05:55:07;-9.30;99.90
26589;DHT22;14235;48.532;8.722;2022-12-18T05:57:33;-9.30;99.90
26589;DHT22;14235;48.532;8.722;2022-12-18T05:59:58;-9.50;99.90
26589;DHT22;14235;48.532;8.722;2022-12-18T06:02:24;-9.60;99.90
26589;DHT22;14235;48.532;8.722;2022-12-18T06:04:49;-10.00;99.90
26589;DHT22;14235;48.532;8.722;2022-12-18T06:07:15;-9.50;99.90
26589;DHT22;14235;48.532;8.722;2022-12-18T06:09:41;-9.50;99.90
26589;DHT22;14235;48.532;8.722;2022-12-18T06:12:06;-9.30;99.90
26589;DHT22;14235;48.532;8.722;2022-12-18T06:14:32;-9.40;99.90
26589;DHT22;14235;48.532;8.722;2022-12-18T06:16:57;-9.40;99.90
26589;DHT22;14235;48.532;8.722;2022-12-18T06:19:23;-9.30;99.90
26589;DHT22;14235;48.532;8.722;2022-12-18T06:21:48;-9.20;99.90
26589;DHT22;14235;48.532;8.722;2022-12-18T06:24:14;-9.20;99.90
26589;DHT22;14235;48.532;8.722;2022-12-18T06:26:40;-9.40;99.90
26589;DHT22;14235;48.532;8.722;2022-12-18T06:29:06;-9.30;99.90
26589;DHT22;14235;48.532;8.722;2022-12-18T06:31:32;-9.50;99.90
26589;DHT22;14235;48.532;8.722;2022-12-18T06:33:57;-9.30;99.90
26589;DHT22;14235;48.532;8.722;2022-12-18T06:36:23;-9.20;99.90
26589;DHT22;14235;48.532;8.722;2022-12-18T06:38:49;-9.10;99.90
26589;DHT22;14235;48.532;8.722;2022-12-18T06:41:19;-9.30;99.90
26589;DHT22;14235;48.532;8.722;2022-12-18T06:43:45;-9.20;99.90
26589;DHT22;14235;48.532;8.722;2022-12-18T06:46:11;-9.30;99.90
26589;DHT22;14235;48.532;8.722;2022-12-18T06:48:37;-9.00;99.90
26589;DHT22;14235;48.532;8.722;2022-12-18T06:51:03;-9.30;99.90
26589;DHT22;14235;48.532;8.722;2022-12-18T06:53:29;-9.30;99.90
26589;DHT22;14235;48.532;8.722;2022-12-18T06:56:06;-9.30;99.90
26589;DHT22;14235;48.532;8.722;2022-12-18T06:58:32;-9.30;99.90
26589;DHT22;14235;48.532;8.722;2022-12-18T07:01:03;-9.30;99.90
26589;DHT22;14235;48.532;8.722;2022-12-18T07:03:29;-9.30;99.90
26589;DHT22;14235;48.532;8.722;2022-12-18T07:05:55;-9.40;99.90
26589;DHT22;14235;48.532;8.722;2022-12-18T07:08:20;-9.50;99.90
26589;DHT22;14235;48.532;8.722;2022-12-18T07:10:46;-9.40;99.90
26589;DHT22;14235;48.532;8.722;2022-12-18T07:13:14;-9.40;99.90
26589;DHT22;14235;48.532;8.722;2022-12-18T07:15:40;-9.40;99.90
26589;DHT22;14235;48.532;8.722;2022-12-18T07:18:05;-9.40;99.90
26589;DHT22;14235;48.532;8.722;2022-12-18T07:20:31;-9.40;99.90
26589;DHT22;14235;48.532;8.722;2022-12-18T07:22:56;-9.40;99.90
26589;DHT22;14235;48.532;8.722;2022-12-18T07:25:23;-9.40;99.90
26589;DHT22;14235;48.532;8.722;2022-12-18T07:27:48;-9.40;99.90
26589;DHT22;14235;48.532;8.722;2022-12-18T07:30:14;-9.40;99.90
26589;DHT22;14235;48.532;8.722;2022-12-18T07:32:39;-9.40;99.90
26589;DHT22;14235;48.532;8.722;2022-12-18T07:35:05;-9.40;99.90
26589;DHT22;14235;48.532;8.722;2022-12-18T07:37:31;-9.30;99.90
26589;DHT22;14235;48.532;8.722;2022-12-18T07:39:56;-9.30;99.90
26589;DHT22;14235;48.532;8.722;2022-12-18T07:42:22;-8.80;99.90
26589;DHT22;14235;48.532;8.722;2022-12-18T07:44:57;-9.40;99.90
26589;DHT22;14235;48.532;8.722;2022-12-18T07:47:23;-9.30;99.90
26589;DHT22;14235;48.532;8.722;2022-12-18T07:49:48;-9.40;99.90
26589;DHT22;14235;48.532;8.722;2022-12-18T07:52:14;-9.40;99.90
26589;DHT22;14235;48.532;8.722;2022-12-18T07:54:40;-9.60;99.90
26589;DHT22;14235;48.532;8.722;2022-12-18T07:57:06;-9.30;99.90
26589;DHT22;14235;48.532;8.722;2022-12-18T07:59:31;-9.30;99.90
26589;DHT22;14235;48.532;8.722;2022-12-18T08:01:57;-9.30;99.90
26589;DHT22;14235;48.532;8.722;2022-12-18T08:04:24;-9.30;99.90
26589;DHT22;14235;48.532;8.722;2022-12-18T08:06:49;-9.30;99.90
26589;DHT22;14235;48.532;8.722;2022-12-18T08:09:15;-9.30;99.90
26589;DHT22;14235;48.532;8.722;2022-12-18T08:11:41;-9.30;99.90
26589;DHT22;14235;48.532;8.722;2022-12-18T08:14:07;-9.20;99.90
26589;DHT22;14235;48.532;8.722;2022-12-18T08:16:32;-9.20;99.90
26589;DHT22;14235;48.532;8.722;2022-12-18T08:18:58;-9.10;99.90
26589;DHT22;14235;48.532;8.722;2022-12-18T08:21:26;-9.10;99.90
26589;DHT22;14235;48.532;8.722;2022-12-18T08:23:53;-9.10;99.90
26589;DHT22;14235;48.532;8.722;2022-12-18T08:26:19;-8.90;99.90
26589;DHT22;14235;48.532;8.722;2022-12-18T08:28:45;-9.00;99.90
26589;DHT22;14235;48.532;8.722;2022-12-18T08:31:11;-8.80;99.90
26589;DHT22;14235;48.532;8.722;2022-12-18T08:33:38;-8.90;99.90
26589;DHT22;14235;48.532;8.722;2022-12-18T08:36:04;-8.70;99.90
26589;DHT22;14235;48.532;8.722;2022-12-18T08:38:32;-8.70;99.90
26589;DHT22;14235;48.532;8.722;2022-12-18T08:41:10;-8.60;99.90
26589;DHT22;14235;48.532;8.722;2022-12-18T08:43:35;-8.60;99.90
26589;DHT22;14235;48.532;8.722;2022-12-18T08:46:21;-8.50;99.90
26589;DHT22;14235;48.532;8.722;2022-12-18T08:48:47;-8.30;99.90
26589;DHT22;14235;48.532;8.722;2022-12-18T08:51:13;-8.40;99.90
26589;DHT22;14235;48.532;8.722;2022-12-18T08:53:41;-8.40;99.90
26589;DHT22;14235;48.532;8.722;2022-12-18T08:56:07;-8.40;99.90
26589;DHT22;14235;48.532;8.722;2022-12-18T08:58:33;-8.30;99.90
26589;DHT22;14235;48.532;8.722;2022-12-18T09:01:03;-8.20;99.90
26589;DHT22;14235;48.532;8.722;2022-12-18T09:03:29;-8.10;99.90
26589;DHT22;14235;48.532;8.722;2022-12-18T09:05:55;-8.10;99.90
26589;DHT22;14235;48.532;8.722;2022-12-18T09:08:20;-8.00;99.90
26589;DHT22;14235;48.532;8.722;2022-12-18T09:10:48;-8.00;99.90
26589;DHT22;14235;48.532;8.722;2022-12-18T09:13:15;-8.00;99.90
26589;DHT22;14235;48.532;8.722;2022-12-18T09:15:45;-8.00;99.90
26589;DHT22;14235;48.532;8.722;2022-12-18T09:18:13;-7.90;99.90
26589;DHT22;14235;48.532;8.722;2022-12-18T09:20:39;-7.90;99.90
26589;DHT22;14235;48.532;8.722;2022-12-18T09:23:05;-7.70;99.90
26589;DHT22;14235;48.532;8.722;2022-12-18T09:25:31;-7.80;99.90
26589;DHT22;14235;48.532;8.722;2022-12-18T09:28:15;-7.80;99.90
26589;DHT22;14235;48.532;8.722;2022-12-18T09:30:43;-7.50;99.90
26589;DHT22;14235;48.532;8.722;2022-12-18T09:33:09;-7.60;99.90
26589;DHT22;14235;48.532;8.722;2022-12-18T09:35:38;-7.40;99.90
26589;DHT22;14235;48.532;8.722;2022-12-18T09:38:05;-7.50;99.90
26589;DHT22;14235;48.532;8.722;2022-12-18T09:40:36;-7.30;99.90
26589;DHT22;14235;48.532;8.722;2022-12-18T09:43:06;-7.20;99.90
26589;DHT22;14235;48.532;8.722;2022-12-18T09:45:42;-7.10;99.90
26589;DHT22;14235;48.532;8.722;2022-12-18T09:48:34;-7.00;99.90
26589;DHT22;14235;48.532;8.722;2022-12-18T09:51:05;-6.90;99.90
26589;DHT22;14235;48.532;8.722;2022-12-18T09:53:35;-6.80;99.90
26589;DHT22;14235;48.532;8.722;2022-12-18T09:56:04;-6.70;99.90
26589;DHT22;14235;48.532;8.722;2022-12-18T09:58:42;-6.70;99.90
26589;DHT22;14235;48.532;8.722;2022-12-18T10:01:20;-6.60;99.90
26589;DHT22;14235;48.532;8.722;2022-12-18T10:03:47;-6.60;99.90
26589;DHT22;14235;48.532;8.722;2022-12-18T10:06:14;-6.10;99.90
26589;DHT22;14235;48.532;8.722;2022-12-18T10:08:49;-6.40;99.90
26589;DHT22;14235;48.532;8.722;2022-12-18T10:15:10;-6.20;99.90
26589;DHT22;14235;48.532;8.722;2022-12-18T10:17:33;-6.10;99.90
26589;DHT22;14235;48.532;8.722;2022-12-18T10:20:10;-6.00;99.90
26589;DHT22;14235;48.532;8.722;2022-12-18T10:23:04;-5.90;99.90
26589;DHT22;14235;48.532;8.722;2022-12-18T10:28:13;-5.60;99.90
26589;DHT22;14235;48.532;8.722;2022-12-18T10:30:41;-4.00;99.90
26589;DHT22;14235;48.532;8.722;2022-12-18T10:33:14;-5.60;99.90
26589;DHT22;14235;48.532;8.722;2022-12-18T10:35:41;-5.30;99.90
26589;DHT22;14235;48.532;8.722;2022-12-18T10:46:01;-5.00;99.90
26589;DHT22;14235;48.532;8.722;2022-12-18T10:48:27;-5.10;99.90
26589;DHT22;14235;48.532;8.722;2022-12-18T10:50:53;-4.90;99.90
26589;DHT22;14235;48.532;8.722;2022-12-18T10:53:25;-4.80;99.90
26589;DHT22;14235;48.532;8.722;2022-12-18T10:55:53;-4.80;99.90
26589;DHT22;14235;48.532;8.722;2022-12-18T10:58:30;-4.60;99.90
26589;DHT22;14235;48.532;8.722;2022-12-18T11:01:16;-4.40;99.90
26589;DHT22;14235;48.532;8.722;2022-12-18T11:03:43;-4.50;99.90
26589;DHT22;14235;48.532;8.722;2022-12-18T11:06:20;-4.40;99.90
26589;DHT22;14235;48.532;8.722;2022-12-18T11:12:30;-4.10;99.90
26589;DHT22;14235;48.532;8.722;2022-12-18T11:14:48;-4.10;99.90
26589;DHT22;14235;48.532;8.722;2022-12-18T11:17:19;-3.90;99.90
26589;DHT22;14235;48.532;8.722;2022-12-18T11:19:55;-3.90;99.90
26589;DHT22;14235;48.532;8.722;2022-12-18T11:27:38;-3.70;99.90
26589;DHT22;14235;48.532;8.722;2022-12-18T11:30:22;-3.80;99.90
26589;DHT22;14235;48.532;8.722;2022-12-18T11:32:54;-3.70;99.90
26589;DHT22;14235;48.532;8.722;2022-12-18T11:35:33;-3.50;99.90
26589;DHT22;14235;48.532;8.722;2022-12-18T11:38:17;-3.50;99.90
26589;DHT22;14235;48.532;8.722;2022-12-18T11:40:47;-3.50;99.90
26589;DHT22;14235;48.532;8.722;2022-12-18T11:43:27;-3.50;99.90
26589;DHT22;14235;48.532;8.722;2022-12-18T11:46:00;-3.40;99.90
26589;DHT22;14235;48.532;8.722;2022-12-18T11:48:32;-3.30;99.90
26589;DHT22;14235;48.532;8.722;2022-12-18T11:51:00;-3.30;99.90
26589;DHT22;14235;48.532;8.722;2022-12-18T11:53:28;-3.30;99.90
26589;DHT22;14235;48.532;8.722;2022-12-18T12:06:59;-2.80;99.90
26589;DHT22;14235;48.532;8.722;2022-12-18T12:12:54;-2.70;99.90
26589;DHT22;14235;48.532;8.722;2022-12-18T12:21:06;-2.60;99.90
26589;DHT22;14235;48.532;8.722;2022-12-18T12:23:49;-2.60;99.90
26589;DHT22;14235;48.532;8.722;2022-12-18T12:32:45;-2.50;99.90
26589;DHT22;14235;48.532;8.722;2022-12-18T12:38:09;-2.40;99.90
26589;DHT22;14235;48.532;8.722;2022-12-18T12:40:41;-2.30;99.90
26589;DHT22;14235;48.532;8.722;2022-12-18T12:43:41;-2.30;99.90
26589;DHT22;14235;48.532;8.722;2022-12-18T12:46:10;-2.20;99.90
26589;DHT22;14235;48.532;8.722;2022-12-18T12:48:58;-1.90;99.90
26589;DHT22;14235;48.532;8.722;2022-12-18T12:51:29;-2.10;99.90
26589;DHT22;14235;48.532;8.722;2022-12-18T12:53:57;-2.10;99.90
26589;DHT22;14235;48.532;8.722;2022-12-18T12:56:32;-2.10;99.90
26589;DHT22;14235;48.532;8.722;2022-12-18T12:59:30;-2.00;99.90
26589;DHT22;14235;48.532;8.722;2022-12-18T13:02:22;-2.10;99.90
26589;DHT22;14235;48.532;8.722;2022-12-18T13:05:00;-2.00;99.90
26589;DHT22;14235;48.532;8.722;2022-12-18T13:07:41;-1.90;99.90
26589;DHT22;14235;48.532;8.722;2022-12-18T13:10:35;-1.90;99.90
26589;DHT22;14235;48.532;8.722;2022-12-18T13:13:05;-1.90;99.90
26589;DHT22;14235;48.532;8.722;2022-12-18T13:15:40;-2.00;99.90
26589;DHT22;14235;48.532;8.722;2022-12-18T13:20:37;-1.90;99.90
26589;DHT22;14235;48.532;8.722;2022-12-18T13:31:00;-1.90;99.90
26589;DHT22;14235;48.532;8.722;2022-12-18T13:36:15;-2.00;99.90
26589;DHT22;14235;48.532;8.722;2022-12-18T13:38:42;-1.90;99.90
26589;DHT22;14235;48.532;8.722;2022-12-18T13:43:46;-1.90;99.90
26589;DHT22;14235;48.532;8.722;2022-12-18T13:51:42;-2.10;99.90
26589;DHT22;14235;48.532;8.722;2022-12-18T13:54:34;-1.90;99.90
26589;DHT22;14235;48.532;8.722;2022-12-18T13:57:00;-1.80;99.90
26589;DHT22;14235;48.532;8.722;2022-12-18T13:59:33;-1.90;99.90
26589;DHT22;14235;48.532;8.722;2022-12-18T14:02:23;-1.90;99.90
26589;DHT22;14235;48.532;8.722;2022-12-18T14:04:50;-1.90;99.90
26589;DHT22;14235;48.532;8.722;2022-12-18T14:07:24;-1.90;99.90
26589;DHT22;14235;48.532;8.722;2022-12-18T14:09:58;-1.90;99.90
26589;DHT22;14235;48.532;8.722;2022-12-18T14:12:31;-2.00;99.90
26589;DHT22;14235;48.532;8.722;2022-12-18T14:20:43;-2.00;99.90
26589;DHT22;14235;48.532;8.722;2022-12-18T14:25:54;-2.10;99.90
26589;DHT22;14235;48.532;8.722;2022-12-18T14:28:20;-2.00;99.90
26589;DHT22;14235;48.532;8.722;2022-12-18T14:30:47;-2.20;99.90
26589;DHT22;14235;48.532;8.722;2022-12-18T14:33:22;-2.20;99.90
26589;DHT22;14235;48.532;8.722;2022-12-18T14:36:03;-2.10;99.90
26589;DHT22;14235;48.532;8.722;2022-12-18T14:38:37;-2.30;99.90
26589;DHT22;14235;48.532;8.722;2022-12-18T14:41:03;-2.20;99.90
26589;DHT22;14235;48.532;8.722;2022-12-18T14:43:32;-2.30;99.90
26589;DHT22;14235;48.532;8.722;2022-12-18T14:45:59;-2.30;99.90
26589;DHT22;14235;48.532;8.722;2022-12-18T14:48:42;-2.30;99.90
26589;DHT22;14235;48.532;8.722;2022-12-18T14:51:20;-2.40;99.90
26589;DHT22;14235;48.532;8.722;2022-12-18T14:54:06;-2.30;99.90
26589;DHT22;14235;48.532;8.722;2022-12-18T14:56:45;-2.40;99.90
26589;DHT22;14235;48.532;8.722;2022-12-18T14:59:22;-2.50;99.90
26589;DHT22;14235;48.532;8.722;2022-12-18T15:04:37;-2.60;99.90
26589;DHT22;14235;48.532;8.722;2022-12-18T15:09:37;-2.60;99.90
26589;DHT22;14235;48.532;8.722;2022-12-18T15:12:03;-2.70;99.90
26589;DHT22;14235;48.532;8.722;2022-12-18T15:14:40;-2.60;99.90
26589;DHT22;14235;48.532;8.722;2022-12-18T15:17:18;-2.80;99.90
26589;DHT22;14235;48.532;8.722;2022-12-18T15:19:45;-2.80;99.90
26589;DHT22;14235;48.532;8.722;2022-12-18T15:22:25;-2.90;99.90
26589;DHT22;14235;48.532;8.722;2022-12-18T15:24:51;-2.90;99.90
26589;DHT22;14235;48.532;8.722;2022-12-18T15:30:25;-2.90;99.90
26589;DHT22;14235;48.532;8.722;2022-12-18T15:32:52;-3.00;99.90
26589;DHT22;14235;48.532;8.722;2022-12-18T15:35:37;-3.10;99.90
26589;DHT22;14235;48.532;8.722;2022-12-18T15:38:03;-3.10;99.90
26589;DHT22;14235;48.532;8.722;2022-12-18T15:40:28;-3.10;99.90
26589;DHT22;14235;48.532;8.722;2022-12-18T15:42:55;-3.10;99.90
26589;DHT22;14235;48.532;8.722;2022-12-18T15:45:39;-3.10;99.90
26589;DHT22;14235;48.532;8.722;2022-12-18T15:48:20;-3.20;99.90
26589;DHT22;14235;48.532;8.722;2022-12-18T15:50:46;-3.20;99.90
26589;DHT22;14235;48.532;8.722;2022-12-18T15:53:12;-3.30;99.90
26589;DHT22;14235;48.532;8.722;2022-12-18T15:55:37;-3.30;99.90
26589;DHT22;14235;48.532;8.722;2022-12-18T15:58:21;-3.30;99.90
26589;DHT22;14235;48.532;8.722;2022-12-18T16:00:47;-3.90;99.90
26589;DHT22;14235;48.532;8.722;2022-12-18T16:03:13;-3.40;99.90
26589;DHT22;14235;48.532;8.722;2022-12-18T16:05:38;-3.40;99.90
26589;DHT22;14235;48.532;8.722;2022-12-18T16:08:04;-3.40;99.90
26589;DHT22;14235;48.532;8.722;2022-12-18T16:10:30;-3.30;99.90
26589;DHT22;14235;48.532;8.722;2022-12-18T16:12:55;-3.50;99.90
26589;DHT22;14235;48.532;8.722;2022-12-18T16:15:21;-3.40;99.90
26589;DHT22;14235;48.532;8.722;2022-12-18T16:17:47;-3.50;99.90
26589;DHT22;14235;48.532;8.722;2022-12-18T16:20:17;-3.50;99.90
26589;DHT22;14235;48.532;8.722;2022-12-18T16:22:45;-3.40;99.90
26589;DHT22;14235;48.532;8.722;2022-12-18T16:25:22;-3.40;99.90
26589;DHT22;14235;48.532;8.722;2022-12-18T16:27:49;-3.50;99.90
26589;DHT22;14235;48.532;8.722;2022-12-18T16:30:16;-3.50;99.90
26589;DHT22;14235;48.532;8.722;2022-12-18T16:32:42;-3.60;99.90
26589;DHT22;14235;48.532;8.722;2022-12-18T16:35:12;-3.50;99.90
26589;DHT22;14235;48.532;8.722;2022-12-18T16:37:39;-3.50;99.90
26589;DHT22;14235;48.532;8.722;2022-12-18T16:40:07;-3.50;99.90
26589;DHT22;14235;48.532;8.722;2022-12-18T16:42:37;-3.40;99.90
26589;DHT22;14235;48.532;8.722;2022-12-18T16:45:04;-3.40;99.90
26589;DHT22;14235;48.532;8.722;2022-12-18T16:47:30;-3.40;99.90
26589;DHT22;14235;48.532;8.722;2022-12-18T16:49:56;-3.40;99.90
26589;DHT22;14235;48.532;8.722;2022-12-18T16:52:21;-3.50;99.90
26589;DHT22;14235;48.532;8.722;2022-12-18T16:54:47;-3.40;99.90
26589;DHT22;14235;48.532;8.722;2022-12-18T16:57:15;-3.40;99.90
26589;DHT22;14235;48.532;8.722;2022-12-18T16:59:41;-3.40;99.90
26589;DHT22;14235;48.532;8.722;2022-12-18T17:02:33;-3.50;99.90
26589;DHT22;14235;48.532;8.722;2022-12-18T17:04:59;-3.40;99.90
26589;DHT22;14235;48.532;8.722;2022-12-18T17:07:26;-3.60;99.90
26589;DHT22;14235;48.532;8.722;2022-12-18T17:09:52;-3.40;99.90
26589;DHT22;14235;48.532;8.722;2022-12-18T17:12:18;-3.50;99.90
26589;DHT22;14235;48.532;8.722;2022-12-18T17:14:44;-3.40;99.90
26589;DHT22;14235;48.532;8.722;2022-12-18T17:17:10;-3.40;99.90
26589;DHT22;14235;48.532;8.722;2022-12-18T17:19:35;-3.60;99.90
26589;DHT22;14235;48.532;8.722;2022-12-18T17:22:01;-3.60;99.90
26589;DHT22;14235;48.532;8.722;2022-12-18T17:24:27;-3.40;99.90
26589;DHT22;14235;48.532;8.722;2022-12-18T17:26:52;-3.40;99.90
26589;DHT22;14235;48.532;8.722;2022-12-18T17:29:19;-3.50;99.90
26589;DHT22;14235;48.532;8.722;2022-12-18T17:31:45;-3.50;99.90
26589;DHT22;14235;48.532;8.722;2022-12-18T17:34:12;-3.40;99.90
26589;DHT22;14235;48.532;8.722;2022-12-18T17:36:38;-3.40;99.90
26589;DHT22;14235;48.532;8.722;2022-12-18T17:39:05;-3.40;99.90
26589;DHT22;14235;48.532;8.722;2022-12-18T17:41:32;-3.40;99.90
26589;DHT22;14235;48.532;8.722;2022-12-18T17:44:00;-3.40;99.90
26589;DHT22;14235;48.532;8.722;2022-12-18T17:46:27;-3.40;99.90
26589;DHT22;14235;48.532;8.722;2022-12-18T17:52:31;-3.60;99.90
26589;DHT22;14235;48.532;8.722;2022-12-18T17:55:01;-3.30;99.90
26589;DHT22;14235;48.532;8.722;2022-12-18T17:57:27;-3.30;99.90
26589;DHT22;14235;48.532;8.722;2022-12-18T17:59:55;-3.30;99.90
26589;DHT22;14235;48.532;8.722;2022-12-18T18:02:21;-3.40;99.90
26589;DHT22;14235;48.532;8.722;2022-12-18T18:04:46;-3.40;99.90
26589;DHT22;14235;48.532;8.722;2022-12-18T18:07:12;-3.40;99.90
26589;DHT22;14235;48.532;8.722;2022-12-18T18:09:37;-3.40;99.90
26589;DHT22;14235;48.532;8.722;2022-12-18T18:12:03;-3.40;99.90
26589;DHT22;14235;48.532;8.722;2022-12-18T18:14:47;-3.40;99.90
26589;DHT22;14235;48.532;8.722;2022-12-18T18:17:12;-3.40;99.90
26589;DHT22;14235;48.532;8.722;2022-12-18T18:19:38;-3.30;99.90
26589;DHT22;14235;48.532;8.722;2022-12-18T18:22:04;-3.40;99.90
26589;DHT22;14235;48.532;8.722;2022-12-18T18:24:29;-3.30;99.90
26589;DHT22;14235;48.532;8.722;2022-12-18T18:26:55;-3.40;99.90
26589;DHT22;14235;48.532;8.722;2022-12-18T18:29:25;-3.30;99.90
26589;DHT22;14235;48.532;8.722;2022-12-18T18:31:51;-3.30;99.90
26589;DHT22;14235;48.532;8.722;2022-12-18T18:34:26;-3.30;99.90
26589;DHT22;14235;48.532;8.722;2022-12-18T18:36:52;-3.40;99.90
26589;DHT22;14235;48.532;8.722;2022-12-18T18:39:18;-3.30;99.90
26589;DHT22;14235;48.532;8.722;2022-12-18T18:41:45;-3.30;99.90
26589;DHT22;14235;48.532;8.722;2022-12-18T18:44:11;-3.30;99.90
26589;DHT22;14235;48.532;8.722;2022-12-18T18:46:37;-3.20;99.90
26589;DHT22;14235;48.532;8.722;2022-12-18T18:49:02;-3.30;99.90
26589;DHT22;14235;48.532;8.722;2022-12-18T18:51:30;-3.30;99.90
26589;DHT22;14235;48.532;8.722;2022-12-18T18:53:55;-3.20;99.90
26589;DHT22;14235;48.532;8.722;2022-12-18T18:56:23;-3.20;99.90
26589;DHT22;14235;48.532;8.722;2022-12-18T18:58:49;-3.30;99.90
26589;DHT22;14235;48.532;8.722;2022-12-18T19:01:18;-3.20;99.90
26589;DHT22;14235;48.532;8.722;2022-12-18T19:03:44;-3.30;99.90
26589;DHT22;14235;48.532;8.722;2022-12-18T19:06:21;-3.30;99.90
26589;DHT22;14235;48.532;8.722;2022-12-18T19:08:51;-3.30;99.90
26589;DHT22;14235;48.532;8.722;2022-12-18T19:11:18;-3.20;99.90
26589;DHT22;14235;48.532;8.722;2022-12-18T19:14:04;-3.20;99.90
26589;DHT22;14235;48.532;8.722;2022-12-18T19:16:30;-3.20;99.90
26589;DHT22;14235;48.532;8.722;2022-12-18T19:18:56;-3.20;99.90
26589;DHT22;14235;48.532;8.722;2022-12-18T19:21:22;-3.20;99.90
26589;DHT22;14235;48.532;8.722;2022-12-18T19:23:48;-3.20;99.90
26589;DHT22;14235;48.532;8.722;2022-12-18T19:26:15;-3.20;99.90
26589;DHT22;14235;48.532;8.722;2022-12-18T19:28:41;-3.20;99.90
26589;DHT22;14235;48.532;8.722;2022-12-18T19:31:09;-3.20;99.90
26589;DHT22;14235;48.532;8.722;2022-12-18T19:33:38;-3.20;99.90
26589;DHT22;14235;48.532;8.722;2022-12-18T19:36:14;-3.20;99.90
26589;DHT22;14235;48.532;8.722;2022-12-18T19:38:43;-3.10;99.90
26589;DHT22;14235;48.532;8.722;2022-12-18T19:41:09;-3.20;99.90
26589;DHT22;14235;48.532;8.722;2022-12-18T19:43:38;-3.20;99.90
26589;DHT22;14235;48.532;8.722;2022-12-18T19:46:08;-3.20;99.90
26589;DHT22;14235;48.532;8.722;2022-12-18T19:48:35;-3.10;99.90
26589;DHT22;14235;48.532;8.722;2022-12-18T19:51:08;-3.20;99.90
26589;DHT22;14235;48.532;8.722;2022-12-18T19:53:34;-3.10;99.90
26589;DHT22;14235;48.532;8.722;2022-12-18T19:56:07;-3.10;99.90
26589;DHT22;14235;48.532;8.722;2022-12-18T19:58:33;-3.10;99.90
26589;DHT22;14235;48.532;8.722;2022-12-18T20:00:59;-3.20;99.90
26589;DHT22;14235;48.532;8.722;2022-12-18T20:03:25;-3.10;99.90
26589;DHT22;14235;48.532;8.722;2022-12-18T20:05:51;-3.20;99.90
26589;DHT22;14235;48.532;8.722;2022-12-18T20:08:16;-3.10;99.90
26589;DHT22;14235;48.532;8.722;2022-12-18T20:10:42;-3.10;99.90
26589;DHT22;14235;48.532;8.722;2022-12-18T20:13:09;-3.10;99.90
26589;DHT22;14235;48.532;8.722;2022-12-18T20:15:35;-3.10;99.90
26589;DHT22;14235;48.532;8.722;2022-12-18T20:18:01;-3.10;99.90
26589;DHT22;14235;48.532;8.722;2022-12-18T20:20:26;-3.10;99.90
26589;DHT22;14235;48.532;8.722;2022-12-18T20:22:52;-3.10;99.90
26589;DHT22;14235;48.532;8.722;2022-12-18T20:25:17;-3.10;99.90
26589;DHT22;14235;48.532;8.722;2022-12-18T20:27:43;-3.10;99.90
26589;DHT22;14235;48.532;8.722;2022-12-18T20:30:09;-3.10;99.90
26589;DHT22;14235;48.532;8.722;2022-12-18T20:32:35;-3.20;99.90
26589;DHT22;14235;48.532;8.722;2022-12-18T20:35:01;-3.10;99.90
26589;DHT22;14235;48.532;8.722;2022-12-18T20:37:26;-3.10;99.90
26589;DHT22;14235;48.532;8.722;2022-12-18T20:39:52;-3.00;99.90
26589;DHT22;14235;48.532;8.722;2022-12-18T20:42:17;-3.10;99.90
26589;DHT22;14235;48.532;8.722;2022-12-18T20:44:45;-3.10;99.90
26589;DHT22;14235;48.532;8.722;2022-12-18T20:47:11;-3.10;99.90
26589;DHT22;14235;48.532;8.722;2022-12-18T20:49:36;-3.10;99.90
26589;DHT22;14235;48.532;8.722;2022-12-18T20:52:02;-3.10;99.90
26589;DHT22;14235;48.532;8.722;2022-12-18T20:54:28;-3.00;99.90
26589;DHT22;14235;48.532;8.722;2022-12-18T20:56:54;-3.00;99.90
26589;DHT22;14235;48.532;8.722;2022-12-18T20:59:26;-3.00;99.90
26589;DHT22;14235;48.532;8.722;2022-12-18T21:01:51;-3.00;99.90
26589;DHT22;14235;48.532;8.722;2022-12-18T21:04:17;-3.00;99.90
26589;DHT22;14235;48.532;8.722;2022-12-18T21:06:43;-3.00;99.90
26589;DHT22;14235;48.532;8.722;2022-12-18T21:09:09;-3.00;99.90
26589;DHT22;14235;48.532;8.722;2022-12-18T21:11:34;-3.00;99.90
26589;DHT22;14235;48.532;8.722;2022-12-18T21:14:26;-3.00;99.90
26589;DHT22;14235;48.532;8.722;2022-12-18T21:16:52;-3.00;99.90
26589;DHT22;14235;48.532;8.722;2022-12-18T21:19:20;-3.00;99.90
26589;DHT22;14235;48.532;8.722;2022-12-18T21:21:50;-3.00;99.90
26589;DHT22;14235;48.532;8.722;2022-12-18T21:24:16;-3.00;99.90
26589;DHT22;14235;48.532;8.722;2022-12-18T21:26:42;-3.00;99.90
26589;DHT22;14235;48.532;8.722;2022-12-18T21:29:12;-3.00;99.90
26589;DHT22;14235;48.532;8.722;2022-12-18T21:31:39;-3.00;99.90
26589;DHT22;14235;48.532;8.722;2022-12-18T21:34:05;-2.90;99.90
26589;DHT22;14235;48.532;8.722;2022-12-18T21:36:32;-2.90;99.90
26589;DHT22;14235;48.532;8.722;2022-12-18T21:38:58;-2.90;99.90
26589;DHT22;14235;48.532;8.722;2022-12-18T21:41:25;-3.00;99.90
26589;DHT22;14235;48.532;8.722;2022-12-18T21:44:13;-3.10;99.90
26589;DHT22;14235;48.532;8.722;2022-12-18T21:46:41;-3.10;99.90
26589;DHT22;14235;48.532;8.722;2022-12-18T21:49:09;-3.00;99.90
26589;DHT22;14235;48.532;8.722;2022-12-18T21:51:34;-2.90;99.90
26589;DHT22;14235;48.532;8.722;2022-12-18T21:54:00;-3.00;99.90
26589;DHT22;14235;48.532;8.722;2022-12-18T21:59:12;-2.90;99.90
26589;DHT22;14235;48.532;8.722;2022-12-18T22:01:38;-2.90;99.90
26589;DHT22;14235;48.532;8.722;2022-12-18T22:04:04;-2.90;99.90
26589;DHT22;14235;48.532;8.722;2022-12-18T22:06:30;-2.80;99.90
26589;DHT22;14235;48.532;8.722;2022-12-18T22:08:55;-2.80;99.90
26589;DHT22;14235;48.532;8.722;2022-12-18T22:11:21;-2.80;99.90
26589;DHT22;14235;48.532;8.722;2022-12-18T22:13:46;-2.80;99.90
26589;DHT22;14235;48.532;8.722;2022-12-18T22:16:12;-2.80;99.90
26589;DHT22;14235;48.532;8.722;2022-12-18T22:18:41;-2.80;99.90
26589;DHT22;14235;48.532;8.722;2022-12-18T22:21:06;-2.80;99.90
26589;DHT22;14235;48.532;8.722;2022-12-18T22:23:32;-2.70;99.90
26589;DHT22;14235;48.532;8.722;2022-12-18T22:25:58;-2.70;99.90
26589;DHT22;14235;48.532;8.722;2022-12-18T22:28:27;-2.80;99.90
26589;DHT22;14235;48.532;8.722;2022-12-18T22:31:11;-2.80;99.90
26589;DHT22;14235;48.532;8.722;2022-12-18T22:33:37;-2.80;99.90
26589;DHT22;14235;48.532;8.722;2022-12-18T22:36:06;-2.80;99.90
26589;DHT22;14235;48.532;8.722;2022-12-18T22:38:32;-2.80;99.90
26589;DHT22;14235;48.532;8.722;2022-12-18T22:40:58;-2.70;99.90
26589;DHT22;14235;48.532;8.722;2022-12-18T22:43:23;-2.80;99.90
26589;DHT22;14235;48.532;8.722;2022-12-18T22:45:49;-2.70;99.90
26589;DHT22;14235;48.532;8.722;2022-12-18T22:48:15;-2.70;99.90
26589;DHT22;14235;48.532;8.722;2022-12-18T22:50:40;-2.70;99.90